createdAt,value
2019-01-12T00:05:18.052Z,1.67
2019-01-12T00:07:51.709Z,1.67
2019-01-12T00:10:42.273Z,1.23
2019-01-12T00:13:32.841Z,1.20
2019-01-12T00:19:09.721Z,1.27
2019-01-12T00:22:00.373Z,2.13
2019-01-12T00:27:53.514Z,1.60
2019-01-12T00:30:26.424Z,1.10
2019-01-12T00:32:57.593Z,1.47
2019-01-12T00:35:48.174Z,1.60
2019-01-12T00:38:38.717Z,1.37
2019-01-12T00:41:29.295Z,1.73
2019-01-12T00:44:31.303Z,1.30
2019-01-12T00:47:04.547Z,1.20
2019-01-12T00:49:56.583Z,1.40
2019-01-12T00:53:06.281Z,1.40
2019-01-12T00:55:56.872Z,1.20
2019-01-12T00:58:47.502Z,1.40
2019-01-12T01:01:38.176Z,2.00
2019-01-12T01:04:28.732Z,2.07
2019-01-12T01:07:19.570Z,1.70
2019-01-12T01:10:18.678Z,1.40
2019-01-12T01:13:09.325Z,1.77
2019-01-12T01:15:40.572Z,2.17
2019-01-12T01:21:14.344Z,1.83
2019-01-12T01:27:09.740Z,2.27
2019-01-12T01:30:19.432Z,2.07
2019-01-12T01:33:10.039Z,2.40
2019-01-12T01:38:45.730Z,2.50
2019-01-12T01:41:36.474Z,2.70
2019-01-12T01:44:27.028Z,2.90
2019-01-12T01:47:17.608Z,2.90
2019-01-12T01:50:27.374Z,2.30
2019-01-12T01:53:17.941Z,2.70
2019-01-12T01:56:27.625Z,2.67
2019-01-12T01:59:18.358Z,2.90
2019-01-12T02:02:08.908Z,2.30
2019-01-12T02:07:45.732Z,2.80
2019-01-12T02:10:48.960Z,2.60
2019-01-12T02:16:07.444Z,2.60
2019-01-12T02:25:00.011Z,2.90
2019-01-12T02:38:39.084Z,3.57
2019-01-12T02:46:56.206Z,3.53
2019-01-12T02:49:27.390Z,4.20
2019-01-12T02:57:48.914Z,4.13
2019-01-12T03:00:39.468Z,3.70
2019-01-12T03:03:30.069Z,4.10
2019-01-12T03:06:39.716Z,3.17
2019-01-12T03:09:30.280Z,4.23
2019-01-12T03:18:08.127Z,3.70
2019-01-12T03:26:25.052Z,3.70
2019-01-12T03:29:16.263Z,4.27
2019-01-12T03:46:09.103Z,4.03
2019-01-12T03:51:42.637Z,4.40
2019-01-12T04:00:14.929Z,6.20
2019-01-12T04:03:05.412Z,4.50
2019-01-12T04:05:55.977Z,5.07
2019-01-12T04:08:39.034Z,5.57
2019-01-12T04:12:01.469Z,5.00
2019-01-12T04:17:15.463Z,5.93
2019-01-12T04:20:24.002Z,5.43
2019-01-12T04:22:55.372Z,5.40
2019-01-12T04:25:45.947Z,5.10
2019-01-12T04:28:48.289Z,5.80
2019-01-12T04:31:19.622Z,4.77
2019-01-12T04:34:10.210Z,5.17
2019-01-12T04:37:19.944Z,5.70
2019-01-12T04:40:26.747Z,6.03
2019-01-12T04:46:03.380Z,5.67
2019-01-12T04:48:53.993Z,5.73
2019-01-12T04:51:44.568Z,5.67
2019-01-12T04:54:35.153Z,6.20
2019-01-12T04:57:25.694Z,5.73
2019-01-12T05:00:18.568Z,6.27
2019-01-12T05:02:50.651Z,5.70
2019-01-12T05:05:41.263Z,5.23
2019-01-12T05:12:01.216Z,5.60
2019-01-12T05:15:30.067Z,6.27
2019-01-12T05:18:01.617Z,5.90
2019-01-12T05:20:52.254Z,6.57
2019-01-12T05:23:42.866Z,7.10
2019-01-12T05:26:33.442Z,5.80
2019-01-12T05:29:23.981Z,5.80
2019-01-12T05:32:14.618Z,5.23
2019-01-12T05:34:58.381Z,8.10
2019-01-12T05:37:48.966Z,5.13
2019-01-12T05:40:20.152Z,6.03
2019-01-12T05:45:36.767Z,5.90
2019-01-12T05:48:27.413Z,6.10
2019-01-12T05:51:19.273Z,6.20
2019-01-12T05:53:50.734Z,7.07
2019-01-12T05:56:42.181Z,6.13
2019-01-12T06:02:16.802Z,6.03
2019-01-12T06:04:48.344Z,6.80
2019-01-12T06:07:58.144Z,7.10
2019-01-12T06:10:48.770Z,6.47
2019-01-12T06:13:32.304Z,6.43
2019-01-12T06:16:14.210Z,6.23
2019-01-12T06:19:06.484Z,7.20
2019-01-12T06:21:37.735Z,7.70
2019-01-12T06:29:58.787Z,7.07
2019-01-12T06:32:43.022Z,8.00
2019-01-12T06:35:26.372Z,7.17
2019-01-12T06:38:16.953Z,8.27
2019-01-12T06:41:07.612Z,7.53
2019-01-12T06:43:58.251Z,7.47
2019-01-12T06:46:48.781Z,8.10
2019-01-12T06:49:39.348Z,7.47
2019-01-12T06:52:29.899Z,6.90
2019-01-12T06:55:20.453Z,7.30
2019-01-12T06:58:10.998Z,6.80
2019-01-12T07:01:01.836Z,9.20
2019-01-12T07:03:52.673Z,12.17
2019-01-12T07:06:43.244Z,6.67
2019-01-12T07:12:38.060Z,6.13
2019-01-12T07:18:14.225Z,6.13
2019-01-12T07:21:04.798Z,6.30
2019-01-12T07:23:55.358Z,6.47
2019-01-12T07:26:45.957Z,6.63
2019-01-12T07:35:15.646Z,6.57
2019-01-12T07:38:06.192Z,5.37
2019-01-12T07:46:25.318Z,5.50
2019-01-12T07:49:15.883Z,5.60
2019-01-12T07:52:06.516Z,5.20
2019-01-12T07:57:46.003Z,4.67
2019-01-12T08:00:36.601Z,4.80
2019-01-12T08:06:11.540Z,4.47
2019-01-12T08:09:04.355Z,4.70
2019-01-12T08:11:55.183Z,4.70
2019-01-12T08:14:26.460Z,4.83
2019-01-12T08:17:36.224Z,4.03
2019-01-12T08:20:26.852Z,4.90
2019-01-12T08:23:17.716Z,4.50
2019-01-12T08:31:37.391Z,5.50
2019-01-12T08:34:28.037Z,4.47
2019-01-12T08:42:55.694Z,5.23
2019-01-12T08:45:46.361Z,5.27
2019-01-12T08:48:37.068Z,5.70
2019-01-12T08:51:27.855Z,5.60
2019-01-12T08:54:18.178Z,6.37
2019-01-12T08:59:53.829Z,5.10
2019-01-12T09:02:44.502Z,5.13
2019-01-12T09:05:35.103Z,5.40
2019-01-12T09:11:09.208Z,3.97
2019-01-12T09:13:59.903Z,4.00
2019-01-12T09:16:50.597Z,4.50
2019-01-12T09:19:41.351Z,4.27
2019-01-12T09:22:44.260Z,3.80
2019-01-12T09:25:34.822Z,4.10
2019-01-12T09:28:25.609Z,4.10
2019-01-12T09:31:16.173Z,4.33
2019-01-12T09:39:58.259Z,4.07
2019-01-12T09:51:29.694Z,5.03
2019-01-12T09:54:20.288Z,6.13
2019-01-12T09:57:30.099Z,6.60
2019-01-12T10:00:01.354Z,4.77
2019-01-12T10:05:35.276Z,5.17
2019-01-12T10:14:16.633Z,5.13
2019-01-12T10:17:13.290Z,4.77
2019-01-12T10:20:35.126Z,5.27
2019-01-12T10:25:51.980Z,4.47
2019-01-12T10:31:26.054Z,4.60
2019-01-12T10:36:42.338Z,5.57
2019-01-12T10:39:17.914Z,4.57
2019-01-12T10:42:06.671Z,4.30
2019-01-12T10:44:39.141Z,4.70
2019-01-12T10:47:43.710Z,4.53
2019-01-12T10:50:19.746Z,4.47
2019-01-12T10:52:51.165Z,4.60
2019-01-12T10:55:41.787Z,4.33
2019-01-12T10:58:25.138Z,4.60
2019-01-12T11:00:59.174Z,5.17
2019-01-12T11:03:49.991Z,7.13
2019-01-12T11:06:21.277Z,11.83
2019-01-12T11:08:52.920Z,4.90
2019-01-12T11:14:28.513Z,4.80
2019-01-12T11:26:17.518Z,4.13
2019-01-12T11:29:19.281Z,3.80
2019-01-12T11:31:52.285Z,3.30
2019-01-12T11:34:43.040Z,3.07
2019-01-12T11:37:14.261Z,3.50
2019-01-12T11:43:09.404Z,4.60
2019-01-12T11:46:00.113Z,3.37
2019-01-12T11:51:33.333Z,3.57
2019-01-12T11:57:07.478Z,2.97
2019-01-12T12:03:05.478Z,8.50
2019-01-12T12:08:41.519Z,3.90
2019-01-12T12:14:17.603Z,3.47
2019-01-12T12:17:08.226Z,2.70
2019-01-12T12:19:58.891Z,2.93
2019-01-12T12:22:49.430Z,2.30
2019-01-12T12:25:39.990Z,2.80
2019-01-12T12:28:30.571Z,2.93
2019-01-12T12:31:21.128Z,2.40
2019-01-12T12:34:11.763Z,3.43
2019-01-12T12:42:49.671Z,4.00
2019-01-12T12:45:41.958Z,3.10
2019-01-12T12:51:15.903Z,3.00
2019-01-12T12:59:57.827Z,6.10
2019-01-12T13:05:32.593Z,4.47
2019-01-12T13:08:23.221Z,3.47
2019-01-12T13:11:06.212Z,3.47
2019-01-12T13:13:56.780Z,3.00
2019-01-12T13:16:47.337Z,2.90
2019-01-12T13:19:37.934Z,3.10
2019-01-12T13:22:28.520Z,3.33
2019-01-12T13:25:19.115Z,3.00
2019-01-12T13:28:09.672Z,3.37
2019-01-12T13:31:00.291Z,2.53
2019-01-12T13:33:50.886Z,6.63
2019-01-12T13:36:41.453Z,2.70
2019-01-12T13:39:34.633Z,2.90
2019-01-12T13:42:25.202Z,3.03
2019-01-12T13:45:17.215Z,2.40
2019-01-12T13:47:59.882Z,2.80
2019-01-12T13:50:32.112Z,2.90
2019-01-12T13:53:22.723Z,3.00
2019-01-12T13:56:13.290Z,2.60
2019-01-12T13:59:03.941Z,3.20
2019-01-12T14:02:13.784Z,3.10
2019-01-12T14:08:09.769Z,3.23
2019-01-12T14:11:00.357Z,2.97
2019-01-12T14:22:25.671Z,2.53
2019-01-12T14:25:17.984Z,3.07
2019-01-12T14:30:54.131Z,2.17
2019-01-12T14:33:44.748Z,2.30
2019-01-12T14:36:35.401Z,2.40
2019-01-12T14:39:25.985Z,2.80
2019-01-12T14:42:16.545Z,1.87
2019-01-12T14:45:19.149Z,2.57
2019-01-12T14:48:09.700Z,3.27
2019-01-12T14:51:00.286Z,2.53
2019-01-12T14:53:51.142Z,4.40
2019-01-12T14:56:41.790Z,2.87
2019-01-12T15:05:02.852Z,2.80
2019-01-12T15:07:53.796Z,3.10
2019-01-12T15:10:25.024Z,2.83
2019-01-12T15:13:28.873Z,2.47
2019-01-12T15:16:05.893Z,3.53
2019-01-12T15:19:15.584Z,2.43
2019-01-12T15:22:36.985Z,3.20
2019-01-12T15:25:20.150Z,2.90
2019-01-12T15:27:55.410Z,2.80
2019-01-12T15:30:47.746Z,3.00
2019-01-12T15:33:58.863Z,3.30
2019-01-12T15:36:49.451Z,3.60
2019-01-12T15:39:59.120Z,3.70
2019-01-12T15:42:49.706Z,3.63
2019-01-12T15:48:23.450Z,3.70
2019-01-12T15:53:58.458Z,4.10
2019-01-12T15:57:08.169Z,3.80
2019-01-12T16:02:42.518Z,4.50
2019-01-12T16:05:33.106Z,4.13
2019-01-12T16:11:08.413Z,3.50
2019-01-12T16:14:00.454Z,3.60
2019-01-12T16:22:23.215Z,4.30
2019-01-12T16:25:25.592Z,4.17
2019-01-12T16:27:57.484Z,3.70
2019-01-12T16:30:48.072Z,3.87
2019-01-12T16:33:38.645Z,3.43
2019-01-12T16:36:29.246Z,3.47
2019-01-12T16:39:19.818Z,3.60
2019-01-12T16:50:26.755Z,3.53
2019-01-12T16:53:17.330Z,4.87
2019-01-12T16:59:03.269Z,3.10
2019-01-12T17:02:12.926Z,3.47
2019-01-12T17:04:44.191Z,3.37
2019-01-12T17:07:40.460Z,3.40
2019-01-12T17:10:32.143Z,2.97
2019-01-12T17:13:16.131Z,3.50
2019-01-12T17:16:06.872Z,3.23
2019-01-12T17:18:57.433Z,3.40
2019-01-12T17:30:01.913Z,3.00
2019-01-12T17:32:45.302Z,2.90
2019-01-12T17:35:35.885Z,2.60
2019-01-12T17:38:36.435Z,2.80
2019-01-12T17:41:07.658Z,1.87
2019-01-12T17:47:02.742Z,3.17
2019-01-12T17:49:53.326Z,3.60
2019-01-12T17:52:43.887Z,3.60
2019-01-12T17:55:54.341Z,3.97
2019-01-12T17:59:03.949Z,3.77
2019-01-12T18:02:06.280Z,4.07
2019-01-12T18:10:29.156Z,3.77
2019-01-12T18:13:00.429Z,3.40
2019-01-12T18:18:50.301Z,3.27
2019-01-12T18:22:01.810Z,3.73
2019-01-12T18:28:01.072Z,3.20
2019-01-12T18:31:04.339Z,3.60
2019-01-12T18:33:36.040Z,3.27
2019-01-12T18:36:30.612Z,3.93
2019-01-12T18:39:41.446Z,3.70
2019-01-12T18:42:43.761Z,3.00
2019-01-12T18:45:17.418Z,3.23
2019-01-12T18:48:08.008Z,4.10
2019-01-12T18:50:58.658Z,3.50
2019-01-12T18:53:49.259Z,3.50
2019-01-12T18:56:39.823Z,4.40
2019-01-12T19:02:33.790Z,4.50
2019-01-12T19:05:24.409Z,4.67
2019-01-12T19:10:58.345Z,3.73
2019-01-12T19:14:10.073Z,4.30
2019-01-12T19:17:00.679Z,3.73
2019-01-12T19:20:29.490Z,3.70
2019-01-12T19:23:20.090Z,3.80
2019-01-12T19:26:10.790Z,4.10
2019-01-12T19:32:03.284Z,3.30
2019-01-12T19:40:50.385Z,3.70
2019-01-12T19:43:41.266Z,3.80
2019-01-12T19:46:31.847Z,3.70
2019-01-12T19:49:22.467Z,3.80
2019-01-12T19:52:15.273Z,3.80
2019-01-12T19:55:25.088Z,4.13
2019-01-12T19:58:15.726Z,3.70
2019-01-12T20:06:55.585Z,3.07
2019-01-12T20:12:30.493Z,3.30
2019-01-12T20:18:26.445Z,2.90
2019-01-12T20:21:36.149Z,2.13
2019-01-12T20:24:26.737Z,2.77
2019-01-12T20:26:58.037Z,1.97
2019-01-12T20:29:48.616Z,2.30
2019-01-12T20:33:03.708Z,2.00
2019-01-12T20:36:32.478Z,1.67
2019-01-12T20:39:41.895Z,1.90
2019-01-12T20:43:32.352Z,1.80
2019-01-12T20:47:01.174Z,1.60
2019-01-12T20:53:45.902Z,1.80
2019-01-12T20:57:14.656Z,1.70
2019-01-12T21:00:24.116Z,1.83
2019-01-12T21:03:49.208Z,1.70
2019-01-12T21:10:32.064Z,1.80
2019-01-12T21:14:00.822Z,1.70
2019-01-12T21:20:00.601Z,1.80
2019-01-12T21:25:34.686Z,1.70
2019-01-12T21:28:18.199Z,1.70
2019-01-12T21:33:52.867Z,1.70
2019-01-12T21:36:24.354Z,1.70
2019-01-12T21:41:59.074Z,1.30
2019-01-12T21:47:55.929Z,1.10
2019-01-12T21:50:46.488Z,1.07
2019-01-12T21:53:37.087Z,1.00
2019-01-12T21:56:40.821Z,1.80
2019-01-12T22:02:14.445Z,1.00
2019-01-12T22:10:52.249Z,0.73
2019-01-12T22:13:44.590Z,1.10
2019-01-12T22:16:35.176Z,0.87
2019-01-12T22:22:17.295Z,0.90
2019-01-12T22:25:27.128Z,0.60
2019-01-12T22:31:00.240Z,0.70
2019-01-12T22:33:50.821Z,0.60
2019-01-12T22:37:00.572Z,0.60
2019-01-12T22:39:51.107Z,0.60
2019-01-12T22:42:44.093Z,0.60
2019-01-12T22:45:34.390Z,0.63
2019-01-12T22:51:11.170Z,0.93
2019-01-12T22:54:01.722Z,0.50
2019-01-12T22:56:52.299Z,0.60
2019-01-12T22:59:42.860Z,1.90
2019-01-12T23:02:52.882Z,0.60
2019-01-12T23:05:43.492Z,0.50
2019-01-12T23:11:19.516Z,0.50
2019-01-12T23:13:56.820Z,0.53
2019-01-12T23:20:28.613Z,0.70
2019-01-12T23:23:38.405Z,0.60
2019-01-12T23:26:48.208Z,0.60
2019-01-12T23:30:04.270Z,0.80
2019-01-12T23:32:42.863Z,0.70
2019-01-12T23:35:52.865Z,0.60
2019-01-12T23:39:02.787Z,0.60
2019-01-12T23:42:12.561Z,0.50
2019-01-12T23:44:50.978Z,0.60
2019-01-12T23:48:01.737Z,0.50
2019-01-12T23:51:22.241Z,0.60
2019-01-12T23:54:13.209Z,0.50
2019-01-12T23:57:03.633Z,0.90
